sensor_id;sensor_type;location;lat;lon;timestamp;P1;durP1;ratioP1;P2;durP2;ratioP2
75866;SDS011;64513;56.258;43.980;2023-04-15T00:00:38;5.08;;;0.70;;
75866;SDS011;64513;56.258;43.980;2023-04-15T00:03:02;4.72;;;0.70;;
75866;SDS011;64513;56.258;43.980;2023-04-15T00:05:28;3.80;;;0.50;;
75866;SDS011;64513;56.258;43.980;2023-04-15T00:07:52;3.08;;;0.50;;
75866;SDS011;64513;56.258;43.980;2023-04-15T00:10:16;2.95;;;0.78;;
75866;SDS011;64513;56.258;43.980;2023-04-15T00:12:40;4.53;;;0.80;;
75866;SDS011;64513;56.258;43.980;2023-04-15T00:15:05;3.92;;;0.57;;
75866;SDS011;64513;56.258;43.980;2023-04-15T00:17:32;4.43;;;0.93;;
75866;SDS011;64513;56.258;43.980;2023-04-15T00:19:57;5.25;;;0.80;;
75866;SDS011;64513;56.258;43.980;2023-04-15T00:22:22;4.37;;;0.80;;
75866;SDS011;64513;56.258;43.980;2023-04-15T00:24:46;3.08;;;0.50;;
75866;SDS011;64513;56.258;43.980;2023-04-15T00:27:10;2.60;;;0.62;;
75866;SDS011;64513;56.258;43.980;2023-04-15T00:29:35;2.27;;;0.40;;
75866;SDS011;64513;56.258;43.980;2023-04-15T00:31:59;3.83;;;0.78;;
75866;SDS011;64513;56.258;43.980;2023-04-15T00:34:23;3.27;;;0.88;;
75866;SDS011;64513;56.258;43.980;2023-04-15T00:36:49;5.78;;;0.90;;
75866;SDS011;64513;56.258;43.980;2023-04-15T00:39:13;2.85;;;0.70;;
75866;SDS011;64513;56.258;43.980;2023-04-15T00:41:37;3.50;;;0.70;;
75866;SDS011;64513;56.258;43.980;2023-04-15T00:44:01;3.35;;;0.70;;
75866;SDS011;64513;56.258;43.980;2023-04-15T00:46:26;4.97;;;1.05;;
75866;SDS011;64513;56.258;43.980;2023-04-15T00:48:53;4.50;;;0.90;;
75866;SDS011;64513;56.258;43.980;2023-04-15T00:51:18;3.08;;;0.65;;
75866;SDS011;64513;56.258;43.980;2023-04-15T00:53:42;5.47;;;0.70;;
75866;SDS011;64513;56.258;43.980;2023-04-15T00:56:06;5.75;;;0.90;;
75866;SDS011;64513;56.258;43.980;2023-04-15T00:58:31;3.15;;;0.70;;
75866;SDS011;64513;56.258;43.980;2023-04-15T01:00:55;3.87;;;0.60;;
75866;SDS011;64513;56.258;43.980;2023-04-15T01:03:20;4.00;;;0.80;;
75866;SDS011;64513;56.258;43.980;2023-04-15T01:05:45;4.67;;;0.77;;
75866;SDS011;64513;56.258;43.980;2023-04-15T01:08:09;2.30;;;0.80;;
75866;SDS011;64513;56.258;43.980;2023-04-15T01:10:33;3.12;;;0.93;;
75866;SDS011;64513;56.258;43.980;2023-04-15T01:12:57;3.47;;;0.88;;
75866;SDS011;64513;56.258;43.980;2023-04-15T01:15:22;3.45;;;0.72;;
75866;SDS011;64513;56.258;43.980;2023-04-15T01:17:47;3.00;;;0.40;;
75866;SDS011;64513;56.258;43.980;2023-04-15T01:20:12;3.35;;;0.90;;
75866;SDS011;64513;56.258;43.980;2023-04-15T01:22:36;2.85;;;0.70;;
75866;SDS011;64513;56.258;43.980;2023-04-15T01:25:04;3.62;;;0.82;;
75866;SDS011;64513;56.258;43.980;2023-04-15T01:27:46;4.58;;;0.60;;
75866;SDS011;64513;56.258;43.980;2023-04-15T01:30:11;5.30;;;0.73;;
75866;SDS011;64513;56.258;43.980;2023-04-15T01:32:35;5.10;;;0.80;;
75866;SDS011;64513;56.258;43.980;2023-04-15T01:35:19;3.90;;;0.62;;
75866;SDS011;64513;56.258;43.980;2023-04-15T01:37:43;10.53;;;0.90;;
75866;SDS011;64513;56.258;43.980;2023-04-15T01:40:08;2.50;;;0.47;;
75866;SDS011;64513;56.258;43.980;2023-04-15T01:42:35;4.00;;;0.70;;
75866;SDS011;64513;56.258;43.980;2023-04-15T01:45:01;3.42;;;0.70;;
75866;SDS011;64513;56.258;43.980;2023-04-15T01:47:28;4.45;;;0.70;;
75866;SDS011;64513;56.258;43.980;2023-04-15T01:49:53;2.80;;;0.60;;
75866;SDS011;64513;56.258;43.980;2023-04-15T01:52:18;3.77;;;0.88;;
75866;SDS011;64513;56.258;43.980;2023-04-15T01:54:44;2.73;;;0.67;;
75866;SDS011;64513;56.258;43.980;2023-04-15T01:57:10;4.85;;;0.72;;
75866;SDS011;64513;56.258;43.980;2023-04-15T01:59:36;2.98;;;0.70;;
75866;SDS011;64513;56.258;43.980;2023-04-15T02:02:01;4.65;;;0.90;;
75866;SDS011;64513;56.258;43.980;2023-04-15T02:04:27;3.17;;;0.80;;
75866;SDS011;64513;56.258;43.980;2023-04-15T02:06:53;3.63;;;0.80;;
75866;SDS011;64513;56.258;43.980;2023-04-15T02:09:19;3.95;;;0.80;;
75866;SDS011;64513;56.258;43.980;2023-04-15T02:11:45;5.33;;;0.78;;
75866;SDS011;64513;56.258;43.980;2023-04-15T02:14:10;5.37;;;0.78;;
75866;SDS011;64513;56.258;43.980;2023-04-15T02:16:36;2.95;;;1.00;;
75866;SDS011;64513;56.258;43.980;2023-04-15T02:19:01;3.37;;;0.73;;
75866;SDS011;64513;56.258;43.980;2023-04-15T02:21:27;2.72;;;0.60;;
75866;SDS011;64513;56.258;43.980;2023-04-15T02:23:55;4.40;;;0.90;;
75866;SDS011;64513;56.258;43.980;2023-04-15T02:26:20;4.42;;;0.85;;
75866;SDS011;64513;56.258;43.980;2023-04-15T02:28:46;2.90;;;0.80;;
75866;SDS011;64513;56.258;43.980;2023-04-15T02:31:12;3.67;;;0.70;;
75866;SDS011;64513;56.258;43.980;2023-04-15T02:33:38;3.60;;;0.70;;
75866;SDS011;64513;56.258;43.980;2023-04-15T02:36:04;2.98;;;0.70;;
75866;SDS011;64513;56.258;43.980;2023-04-15T02:38:31;3.87;;;0.80;;
75866;SDS011;64513;56.258;43.980;2023-04-15T02:40:57;2.98;;;0.95;;
75866;SDS011;64513;56.258;43.980;2023-04-15T02:43:23;3.57;;;0.60;;
75866;SDS011;64513;56.258;43.980;2023-04-15T02:45:48;2.55;;;0.60;;
75866;SDS011;64513;56.258;43.980;2023-04-15T02:48:14;2.50;;;0.90;;
75866;SDS011;64513;56.258;43.980;2023-04-15T02:50:40;3.58;;;0.68;;
75866;SDS011;64513;56.258;43.980;2023-04-15T02:53:05;3.35;;;0.78;;
75866;SDS011;64513;56.258;43.980;2023-04-15T02:55:31;4.03;;;0.77;;
75866;SDS011;64513;56.258;43.980;2023-04-15T02:57:56;3.12;;;0.80;;
75866;SDS011;64513;56.258;43.980;2023-04-15T03:00:22;3.40;;;0.90;;
75866;SDS011;64513;56.258;43.980;2023-04-15T03:02:48;3.33;;;0.60;;
75866;SDS011;64513;56.258;43.980;2023-04-15T03:05:15;5.08;;;0.75;;
75866;SDS011;64513;56.258;43.980;2023-04-15T03:07:40;3.27;;;0.60;;
75866;SDS011;64513;56.258;43.980;2023-04-15T03:10:06;3.95;;;0.60;;
75866;SDS011;64513;56.258;43.980;2023-04-15T03:12:32;3.33;;;0.50;;
75866;SDS011;64513;56.258;43.980;2023-04-15T03:14:57;4.75;;;0.70;;
75866;SDS011;64513;56.258;43.980;2023-04-15T03:17:23;3.37;;;0.68;;
75866;SDS011;64513;56.258;43.980;2023-04-15T03:19:48;3.00;;;0.70;;
75866;SDS011;64513;56.258;43.980;2023-04-15T03:22:13;3.35;;;0.80;;
75866;SDS011;64513;56.258;43.980;2023-04-15T03:24:39;4.10;;;0.70;;
75866;SDS011;64513;56.258;43.980;2023-04-15T03:27:04;4.45;;;0.80;;
75866;SDS011;64513;56.258;43.980;2023-04-15T03:29:30;5.75;;;0.65;;
75866;SDS011;64513;56.258;43.980;2023-04-15T03:31:55;4.40;;;0.73;;
75866;SDS011;64513;56.258;43.980;2023-04-15T03:34:21;3.37;;;0.80;;
75866;SDS011;64513;56.258;43.980;2023-04-15T03:36:46;4.15;;;1.00;;
75866;SDS011;64513;56.258;43.980;2023-04-15T03:39:12;4.97;;;0.70;;
75866;SDS011;64513;56.258;43.980;2023-04-15T03:41:37;3.33;;;0.57;;
75866;SDS011;64513;56.258;43.980;2023-04-15T03:44:03;5.57;;;0.80;;
75866;SDS011;64513;56.258;43.980;2023-04-15T03:46:28;4.03;;;0.70;;
75866;SDS011;64513;56.258;43.980;2023-04-15T03:48:54;2.83;;;0.80;;
75866;SDS011;64513;56.258;43.980;2023-04-15T03:51:19;3.92;;;0.80;;
75866;SDS011;64513;56.258;43.980;2023-04-15T03:53:45;3.85;;;0.88;;
75866;SDS011;64513;56.258;43.980;2023-04-15T03:56:11;3.93;;;0.67;;
75866;SDS011;64513;56.258;43.980;2023-04-15T03:58:36;2.87;;;0.70;;
75866;SDS011;64513;56.258;43.980;2023-04-15T04:01:02;2.87;;;0.75;;
75866;SDS011;64513;56.258;43.980;2023-04-15T04:03:28;6.03;;;0.80;;
75866;SDS011;64513;56.258;43.980;2023-04-15T04:05:53;3.85;;;0.60;;
75866;SDS011;64513;56.258;43.980;2023-04-15T04:08:18;3.37;;;0.70;;
75866;SDS011;64513;56.258;43.980;2023-04-15T04:10:44;4.33;;;0.70;;
75866;SDS011;64513;56.258;43.980;2023-04-15T04:13:09;3.40;;;1.00;;
75866;SDS011;64513;56.258;43.980;2023-04-15T04:15:35;2.65;;;0.65;;
75866;SDS011;64513;56.258;43.980;2023-04-15T04:18:00;4.00;;;0.62;;
75866;SDS011;64513;56.258;43.980;2023-04-15T04:20:26;3.30;;;0.80;;
75866;SDS011;64513;56.258;43.980;2023-04-15T04:23:11;2.83;;;0.78;;
75866;SDS011;64513;56.258;43.980;2023-04-15T04:25:36;4.42;;;0.88;;
75866;SDS011;64513;56.258;43.980;2023-04-15T04:28:03;3.08;;;0.72;;
75866;SDS011;64513;56.258;43.980;2023-04-15T04:30:28;4.05;;;0.82;;
75866;SDS011;64513;56.258;43.980;2023-04-15T04:32:54;2.50;;;0.70;;
75866;SDS011;64513;56.258;43.980;2023-04-15T04:35:19;3.47;;;0.82;;
75866;SDS011;64513;56.258;43.980;2023-04-15T04:37:45;4.05;;;1.05;;
75866;SDS011;64513;56.258;43.980;2023-04-15T04:40:12;3.27;;;0.60;;
75866;SDS011;64513;56.258;43.980;2023-04-15T04:42:37;4.03;;;0.75;;
75866;SDS011;64513;56.258;43.980;2023-04-15T04:45:03;4.63;;;0.80;;
75866;SDS011;64513;56.258;43.980;2023-04-15T04:47:28;3.00;;;0.85;;
75866;SDS011;64513;56.258;43.980;2023-04-15T04:49:53;3.98;;;0.80;;
75866;SDS011;64513;56.258;43.980;2023-04-15T04:52:19;4.15;;;0.70;;
75866;SDS011;64513;56.258;43.980;2023-04-15T04:54:44;2.70;;;0.80;;
75866;SDS011;64513;56.258;43.980;2023-04-15T04:57:10;3.73;;;0.80;;
75866;SDS011;64513;56.258;43.980;2023-04-15T04:59:35;3.70;;;0.90;;
75866;SDS011;64513;56.258;43.980;2023-04-15T05:02:01;7.20;;;0.90;;
75866;SDS011;64513;56.258;43.980;2023-04-15T05:04:26;4.60;;;0.80;;
75866;SDS011;64513;56.258;43.980;2023-04-15T05:06:51;3.17;;;0.90;;
75866;SDS011;64513;56.258;43.980;2023-04-15T05:09:17;3.40;;;0.90;;
75866;SDS011;64513;56.258;43.980;2023-04-15T05:11:42;6.87;;;1.10;;
75866;SDS011;64513;56.258;43.980;2023-04-15T05:14:08;5.60;;;1.72;;
75866;SDS011;64513;56.258;43.980;2023-04-15T05:16:33;4.12;;;1.17;;
75866;SDS011;64513;56.258;43.980;2023-04-15T05:18:58;3.67;;;0.80;;
75866;SDS011;64513;56.258;43.980;2023-04-15T05:21:24;4.17;;;1.00;;
75866;SDS011;64513;56.258;43.980;2023-04-15T05:23:50;2.92;;;0.98;;
75866;SDS011;64513;56.258;43.980;2023-04-15T05:26:16;9.13;;;1.10;;
75866;SDS011;64513;56.258;43.980;2023-04-15T05:28:42;6.78;;;1.00;;
75866;SDS011;64513;56.258;43.980;2023-04-15T05:31:07;9.38;;;1.40;;
75866;SDS011;64513;56.258;43.980;2023-04-15T05:33:32;4.77;;;0.90;;
75866;SDS011;64513;56.258;43.980;2023-04-15T05:35:58;3.87;;;1.10;;
75866;SDS011;64513;56.258;43.980;2023-04-15T05:38:23;4.28;;;1.20;;
75866;SDS011;64513;56.258;43.980;2023-04-15T05:40:49;4.62;;;1.30;;
75866;SDS011;64513;56.258;43.980;2023-04-15T05:43:14;7.15;;;1.22;;
75866;SDS011;64513;56.258;43.980;2023-04-15T05:45:40;4.53;;;1.30;;
75866;SDS011;64513;56.258;43.980;2023-04-15T05:48:05;3.60;;;1.02;;
75866;SDS011;64513;56.258;43.980;2023-04-15T05:50:31;5.97;;;1.35;;
75866;SDS011;64513;56.258;43.980;2023-04-15T05:52:57;5.10;;;1.10;;
75866;SDS011;64513;56.258;43.980;2023-04-15T05:55:22;3.60;;;1.12;;
75866;SDS011;64513;56.258;43.980;2023-04-15T05:57:47;3.30;;;1.10;;
75866;SDS011;64513;56.258;43.980;2023-04-15T06:00:13;6.08;;;1.20;;
75866;SDS011;64513;56.258;43.980;2023-04-15T06:02:39;3.60;;;1.10;;
75866;SDS011;64513;56.258;43.980;2023-04-15T06:05:05;5.08;;;1.35;;
75866;SDS011;64513;56.258;43.980;2023-04-15T06:07:31;3.80;;;1.40;;
75866;SDS011;64513;56.258;43.980;2023-04-15T06:09:57;3.62;;;1.10;;
75866;SDS011;64513;56.258;43.980;2023-04-15T06:12:22;4.23;;;1.30;;
75866;SDS011;64513;56.258;43.980;2023-04-15T06:14:48;5.17;;;1.20;;
75866;SDS011;64513;56.258;43.980;2023-04-15T06:17:13;3.70;;;1.12;;
75866;SDS011;64513;56.258;43.980;2023-04-15T06:19:39;4.65;;;1.20;;
75866;SDS011;64513;56.258;43.980;2023-04-15T06:22:04;3.95;;;1.32;;
75866;SDS011;64513;56.258;43.980;2023-04-15T06:24:30;4.03;;;1.40;;
75866;SDS011;64513;56.258;43.980;2023-04-15T06:26:56;4.05;;;1.20;;
75866;SDS011;64513;56.258;43.980;2023-04-15T06:29:22;3.45;;;1.30;;
75866;SDS011;64513;56.258;43.980;2023-04-15T06:31:47;6.70;;;2.10;;
75866;SDS011;64513;56.258;43.980;2023-04-15T06:34:13;4.70;;;2.00;;
75866;SDS011;64513;56.258;43.980;2023-04-15T06:36:38;6.90;;;2.03;;
75866;SDS011;64513;56.258;43.980;2023-04-15T06:39:03;4.40;;;1.60;;
75866;SDS011;64513;56.258;43.980;2023-04-15T06:41:29;4.45;;;1.80;;
75866;SDS011;64513;56.258;43.980;2023-04-15T06:43:55;6.22;;;1.90;;
75866;SDS011;64513;56.258;43.980;2023-04-15T06:46:20;5.15;;;1.75;;
75866;SDS011;64513;56.258;43.980;2023-04-15T06:48:46;3.37;;;1.30;;
75866;SDS011;64513;56.258;43.980;2023-04-15T06:51:12;5.03;;;1.27;;
75866;SDS011;64513;56.258;43.980;2023-04-15T06:53:37;4.17;;;1.50;;
75866;SDS011;64513;56.258;43.980;2023-04-15T06:56:03;4.62;;;1.32;;
75866;SDS011;64513;56.258;43.980;2023-04-15T06:58:30;3.58;;;1.30;;
75866;SDS011;64513;56.258;43.980;2023-04-15T07:00:55;4.50;;;1.60;;
75866;SDS011;64513;56.258;43.980;2023-04-15T07:03:20;3.15;;;1.35;;
75866;SDS011;64513;56.258;43.980;2023-04-15T07:05:46;4.03;;;1.40;;
75866;SDS011;64513;56.258;43.980;2023-04-15T07:08:12;5.00;;;1.15;;
75866;SDS011;64513;56.258;43.980;2023-04-15T07:10:37;5.37;;;1.30;;
75866;SDS011;64513;56.258;43.980;2023-04-15T07:13:03;5.72;;;1.20;;
75866;SDS011;64513;56.258;43.980;2023-04-15T07:15:28;3.80;;;1.50;;
75866;SDS011;64513;56.258;43.980;2023-04-15T07:17:54;3.97;;;1.30;;
75866;SDS011;64513;56.258;43.980;2023-04-15T07:20:19;4.77;;;1.30;;
75866;SDS011;64513;56.258;43.980;2023-04-15T07:22:45;4.10;;;1.37;;
75866;SDS011;64513;56.258;43.980;2023-04-15T07:25:10;6.12;;;1.42;;
75866;SDS011;64513;56.258;43.980;2023-04-15T07:27:37;4.53;;;1.35;;
75866;SDS011;64513;56.258;43.980;2023-04-15T07:30:02;3.67;;;1.37;;
75866;SDS011;64513;56.258;43.980;2023-04-15T07:32:27;4.20;;;1.20;;
75866;SDS011;64513;56.258;43.980;2023-04-15T07:34:52;6.07;;;1.43;;
75866;SDS011;64513;56.258;43.980;2023-04-15T07:37:18;4.35;;;1.37;;
75866;SDS011;64513;56.258;43.980;2023-04-15T07:39:43;4.12;;;1.20;;
75866;SDS011;64513;56.258;43.980;2023-04-15T07:42:10;7.00;;;1.27;;
75866;SDS011;64513;56.258;43.980;2023-04-15T07:44:35;4.58;;;1.37;;
75866;SDS011;64513;56.258;43.980;2023-04-15T07:47:01;8.20;;;1.60;;
75866;SDS011;64513;56.258;43.980;2023-04-15T07:49:27;4.50;;;1.50;;
75866;SDS011;64513;56.258;43.980;2023-04-15T07:51:52;9.85;;;1.85;;
75866;SDS011;64513;56.258;43.980;2023-04-15T07:54:19;3.70;;;1.50;;
75866;SDS011;64513;56.258;43.980;2023-04-15T07:56:45;4.93;;;1.60;;
75866;SDS011;64513;56.258;43.980;2023-04-15T07:59:10;6.40;;;1.70;;
75866;SDS011;64513;56.258;43.980;2023-04-15T08:01:37;6.20;;;1.32;;
75866;SDS011;64513;56.258;43.980;2023-04-15T08:04:04;4.33;;;1.40;;
75866;SDS011;64513;56.258;43.980;2023-04-15T08:06:29;6.97;;;1.80;;
75866;SDS011;64513;56.258;43.980;2023-04-15T08:08:56;7.70;;;1.62;;
75866;SDS011;64513;56.258;43.980;2023-04-15T08:11:21;5.05;;;1.90;;
75866;SDS011;64513;56.258;43.980;2023-04-15T08:13:47;4.42;;;1.87;;
75866;SDS011;64513;56.258;43.980;2023-04-15T08:18:58;5.27;;;1.60;;
75866;SDS011;64513;56.258;43.980;2023-04-15T08:21:24;4.60;;;1.70;;
75866;SDS011;64513;56.258;43.980;2023-04-15T08:23:50;4.42;;;1.50;;
75866;SDS011;64513;56.258;43.980;2023-04-15T08:26:17;3.67;;;1.12;;
75866;SDS011;64513;56.258;43.980;2023-04-15T08:28:44;4.45;;;1.30;;
75866;SDS011;64513;56.258;43.980;2023-04-15T08:31:11;4.65;;;1.37;;
75866;SDS011;64513;56.258;43.980;2023-04-15T08:33:38;3.40;;;1.40;;
75866;SDS011;64513;56.258;43.980;2023-04-15T08:36:04;4.17;;;1.50;;
75866;SDS011;64513;56.258;43.980;2023-04-15T08:38:30;4.17;;;1.47;;
75866;SDS011;64513;56.258;43.980;2023-04-15T08:40:55;3.90;;;1.30;;
75866;SDS011;64513;56.258;43.980;2023-04-15T08:46:11;4.55;;;1.30;;
75866;SDS011;64513;56.258;43.980;2023-04-15T08:48:37;3.20;;;1.20;;
75866;SDS011;64513;56.258;43.980;2023-04-15T08:51:03;4.20;;;1.45;;
75866;SDS011;64513;56.258;43.980;2023-04-15T08:53:29;7.62;;;1.50;;
75866;SDS011;64513;56.258;43.980;2023-04-15T08:55:55;3.52;;;1.20;;
75866;SDS011;64513;56.258;43.980;2023-04-15T08:58:23;8.10;;;1.32;;
75866;SDS011;64513;56.258;43.980;2023-04-15T09:00:48;3.75;;;1.20;;
75866;SDS011;64513;56.258;43.980;2023-04-15T09:03:14;4.13;;;1.90;;
75866;SDS011;64513;56.258;43.980;2023-04-15T09:05:43;6.28;;;1.60;;
75866;SDS011;64513;56.258;43.980;2023-04-15T09:08:09;5.35;;;1.62;;
75866;SDS011;64513;56.258;43.980;2023-04-15T09:10:34;4.90;;;1.60;;
75866;SDS011;64513;56.258;43.980;2023-04-15T09:13:00;6.12;;;1.60;;
75866;SDS011;64513;56.258;43.980;2023-04-15T09:15:25;4.40;;;1.57;;
75866;SDS011;64513;56.258;43.980;2023-04-15T09:17:52;4.45;;;1.42;;
75866;SDS011;64513;56.258;43.980;2023-04-15T09:20:17;6.80;;;1.30;;
75866;SDS011;64513;56.258;43.980;2023-04-15T09:22:44;3.77;;;1.30;;
75866;SDS011;64513;56.258;43.980;2023-04-15T09:30:27;4.35;;;1.20;;
75866;SDS011;64513;56.258;43.980;2023-04-15T09:32:54;5.45;;;1.37;;
75866;SDS011;64513;56.258;43.980;2023-04-15T09:35:22;6.73;;;1.40;;
75866;SDS011;64513;56.258;43.980;2023-04-15T09:37:49;3.93;;;1.20;;
75866;SDS011;64513;56.258;43.980;2023-04-15T09:43:02;3.60;;;1.50;;
75866;SDS011;64513;56.258;43.980;2023-04-15T09:45:30;4.67;;;1.37;;
75866;SDS011;64513;56.258;43.980;2023-04-15T09:47:57;6.75;;;1.67;;
75866;SDS011;64513;56.258;43.980;2023-04-15T09:53:10;5.60;;;1.57;;
75866;SDS011;64513;56.258;43.980;2023-04-15T09:55:38;5.40;;;1.40;;
75866;SDS011;64513;56.258;43.980;2023-04-15T10:00:52;5.45;;;1.62;;
75866;SDS011;64513;56.258;43.980;2023-04-15T10:03:23;5.30;;;1.30;;
75866;SDS011;64513;56.258;43.980;2023-04-15T10:05:51;9.83;;;1.53;;
75866;SDS011;64513;56.258;43.980;2023-04-15T10:08:19;4.12;;;1.50;;
75866;SDS011;64513;56.258;43.980;2023-04-15T10:10:46;5.15;;;1.60;;
75866;SDS011;64513;56.258;43.980;2023-04-15T10:13:13;4.03;;;1.40;;
75866;SDS011;64513;56.258;43.980;2023-04-15T10:15:44;3.40;;;1.10;;
75866;SDS011;64513;56.258;43.980;2023-04-15T10:18:12;5.40;;;1.50;;
75866;SDS011;64513;56.258;43.980;2023-04-15T10:20:40;4.85;;;1.40;;
75866;SDS011;64513;56.258;43.980;2023-04-15T10:23:06;3.95;;;1.25;;
75866;SDS011;64513;56.258;43.980;2023-04-15T10:25:32;3.98;;;1.50;;
75866;SDS011;64513;56.258;43.980;2023-04-15T10:27:58;4.20;;;1.42;;
75866;SDS011;64513;56.258;43.980;2023-04-15T10:30:24;3.27;;;1.27;;
75866;SDS011;64513;56.258;43.980;2023-04-15T10:32:51;3.92;;;1.22;;
75866;SDS011;64513;56.258;43.980;2023-04-15T10:35:17;3.77;;;1.40;;
75866;SDS011;64513;56.258;43.980;2023-04-15T10:37:44;4.58;;;1.17;;
75866;SDS011;64513;56.258;43.980;2023-04-15T10:42:56;4.27;;;1.30;;
75866;SDS011;64513;56.258;43.980;2023-04-15T10:45:24;6.60;;;1.32;;
75866;SDS011;64513;56.258;43.980;2023-04-15T10:47:51;4.05;;;1.10;;
75866;SDS011;64513;56.258;43.980;2023-04-15T10:50:36;4.45;;;1.25;;
75866;SDS011;64513;56.258;43.980;2023-04-15T10:53:02;4.67;;;1.22;;
75866;SDS011;64513;56.258;43.980;2023-04-15T10:55:30;4.63;;;1.40;;
75866;SDS011;64513;56.258;43.980;2023-04-15T11:00:47;4.25;;;1.15;;
75866;SDS011;64513;56.258;43.980;2023-04-15T11:03:13;4.37;;;1.60;;
75866;SDS011;64513;56.258;43.980;2023-04-15T11:14:38;6.45;;;1.80;;
75866;SDS011;64513;56.258;43.980;2023-04-15T11:17:06;6.03;;;2.00;;
75866;SDS011;64513;56.258;43.980;2023-04-15T11:22:17;7.00;;;1.77;;
75866;SDS011;64513;56.258;43.980;2023-04-15T11:27:29;6.83;;;1.60;;
75866;SDS011;64513;56.258;43.980;2023-04-15T11:29:55;4.78;;;1.70;;
75866;SDS011;64513;56.258;43.980;2023-04-15T11:32:20;7.00;;;1.60;;
75866;SDS011;64513;56.258;43.980;2023-04-15T11:34:46;6.97;;;1.80;;
75866;SDS011;64513;56.258;43.980;2023-04-15T11:37:11;6.72;;;1.80;;
75866;SDS011;64513;56.258;43.980;2023-04-15T11:39:37;6.08;;;1.67;;
75866;SDS011;64513;56.258;43.980;2023-04-15T11:42:02;4.45;;;1.30;;
75866;SDS011;64513;56.258;43.980;2023-04-15T11:44:29;6.00;;;1.60;;
75866;SDS011;64513;56.258;43.980;2023-04-15T11:46:55;4.80;;;1.60;;
75866;SDS011;64513;56.258;43.980;2023-04-15T11:52:38;5.22;;;1.45;;
75866;SDS011;64513;56.258;43.980;2023-04-15T11:54:51;5.42;;;1.50;;
75866;SDS011;64513;56.258;43.980;2023-04-15T11:57:18;5.15;;;1.45;;
75866;SDS011;64513;56.258;43.980;2023-04-15T11:59:42;7.33;;;1.60;;
75866;SDS011;64513;56.258;43.980;2023-04-15T12:05:10;4.55;;;1.30;;
75866;SDS011;64513;56.258;43.980;2023-04-15T12:10:20;6.47;;;1.42;;
75866;SDS011;64513;56.258;43.980;2023-04-15T12:13:05;4.47;;;1.33;;
75866;SDS011;64513;56.258;43.980;2023-04-15T12:15:31;3.85;;;1.30;;
75866;SDS011;64513;56.258;43.980;2023-04-15T12:17:57;4.47;;;1.27;;
75866;SDS011;64513;56.258;43.980;2023-04-15T12:20:24;4.80;;;1.40;;
75866;SDS011;64513;56.258;43.980;2023-04-15T12:23:07;3.85;;;1.55;;
75866;SDS011;64513;56.258;43.980;2023-04-15T12:25:33;5.33;;;1.50;;
75866;SDS011;64513;56.258;43.980;2023-04-15T12:27:58;4.10;;;1.40;;
75866;SDS011;64513;56.258;43.980;2023-04-15T12:30:22;4.00;;;1.50;;
75866;SDS011;64513;56.258;43.980;2023-04-15T12:32:46;6.55;;;1.60;;
75866;SDS011;64513;56.258;43.980;2023-04-15T12:35:10;4.72;;;1.50;;
75866;SDS011;64513;56.258;43.980;2023-04-15T12:37:35;4.80;;;1.50;;
75866;SDS011;64513;56.258;43.980;2023-04-15T12:39:59;9.28;;;1.60;;
75866;SDS011;64513;56.258;43.980;2023-04-15T12:42:25;6.12;;;1.82;;
75866;SDS011;64513;56.258;43.980;2023-04-15T12:44:49;4.37;;;1.30;;
75866;SDS011;64513;56.258;43.980;2023-04-15T12:47:13;5.08;;;1.90;;
75866;SDS011;64513;56.258;43.980;2023-04-15T12:49:38;6.27;;;1.93;;
75866;SDS011;64513;56.258;43.980;2023-04-15T12:52:02;5.33;;;1.60;;
75866;SDS011;64513;56.258;43.980;2023-04-15T12:54:27;7.30;;;2.00;;
75866;SDS011;64513;56.258;43.980;2023-04-15T12:56:54;5.00;;;1.95;;
75866;SDS011;64513;56.258;43.980;2023-04-15T12:59:19;6.08;;;1.95;;
75866;SDS011;64513;56.258;43.980;2023-04-15T13:01:43;5.57;;;2.00;;
75866;SDS011;64513;56.258;43.980;2023-04-15T13:04:08;6.35;;;2.22;;
75866;SDS011;64513;56.258;43.980;2023-04-15T13:06:33;4.75;;;1.87;;
75866;SDS011;64513;56.258;43.980;2023-04-15T13:08:58;4.37;;;1.70;;
75866;SDS011;64513;56.258;43.980;2023-04-15T13:11:23;5.30;;;2.20;;
75866;SDS011;64513;56.258;43.980;2023-04-15T13:13:49;4.27;;;1.77;;
75866;SDS011;64513;56.258;43.980;2023-04-15T13:16:13;6.95;;;1.85;;
75866;SDS011;64513;56.258;43.980;2023-04-15T13:18:37;5.05;;;1.72;;
75866;SDS011;64513;56.258;43.980;2023-04-15T13:21:01;5.03;;;1.57;;
75866;SDS011;64513;56.258;43.980;2023-04-15T13:23:27;4.92;;;1.87;;
75866;SDS011;64513;56.258;43.980;2023-04-15T13:25:51;4.50;;;1.70;;
75866;SDS011;64513;56.258;43.980;2023-04-15T13:28:16;6.87;;;1.98;;
75866;SDS011;64513;56.258;43.980;2023-04-15T13:30:40;6.08;;;2.10;;
75866;SDS011;64513;56.258;43.980;2023-04-15T13:33:05;5.78;;;1.87;;
75866;SDS011;64513;56.258;43.980;2023-04-15T13:35:30;5.33;;;1.95;;
75866;SDS011;64513;56.258;43.980;2023-04-15T13:37:55;5.90;;;1.90;;
75866;SDS011;64513;56.258;43.980;2023-04-15T13:40:20;4.97;;;1.80;;
75866;SDS011;64513;56.258;43.980;2023-04-15T13:42:44;6.78;;;1.95;;
75866;SDS011;64513;56.258;43.980;2023-04-15T13:45:08;5.65;;;2.00;;
75866;SDS011;64513;56.258;43.980;2023-04-15T13:47:33;5.65;;;2.05;;
75866;SDS011;64513;56.258;43.980;2023-04-15T13:49:57;6.60;;;1.85;;
75866;SDS011;64513;56.258;43.980;2023-04-15T13:52:21;5.37;;;2.00;;
75866;SDS011;64513;56.258;43.980;2023-04-15T13:54:46;7.53;;;1.90;;
75866;SDS011;64513;56.258;43.980;2023-04-15T13:57:10;5.05;;;1.62;;
75866;SDS011;64513;56.258;43.980;2023-04-15T13:59:34;7.50;;;2.00;;
75866;SDS011;64513;56.258;43.980;2023-04-15T14:01:58;5.27;;;1.87;;
75866;SDS011;64513;56.258;43.980;2023-04-15T14:04:22;5.83;;;1.70;;
75866;SDS011;64513;56.258;43.980;2023-04-15T14:06:46;5.22;;;1.70;;
75866;SDS011;64513;56.258;43.980;2023-04-15T14:09:11;4.80;;;1.82;;
75866;SDS011;64513;56.258;43.980;2023-04-15T14:11:37;4.75;;;1.55;;
75866;SDS011;64513;56.258;43.980;2023-04-15T14:14:01;9.33;;;1.60;;
75866;SDS011;64513;56.258;43.980;2023-04-15T14:16:25;5.15;;;1.60;;
75866;SDS011;64513;56.258;43.980;2023-04-15T14:18:50;3.90;;;1.45;;
75866;SDS011;64513;56.258;43.980;2023-04-15T14:21:14;5.87;;;1.80;;
75866;SDS011;64513;56.258;43.980;2023-04-15T14:23:39;6.45;;;1.80;;
75866;SDS011;64513;56.258;43.980;2023-04-15T14:26:04;4.27;;;1.53;;
75866;SDS011;64513;56.258;43.980;2023-04-15T14:28:28;6.35;;;1.50;;
75866;SDS011;64513;56.258;43.980;2023-04-15T14:30:52;5.67;;;1.40;;
75866;SDS011;64513;56.258;43.980;2023-04-15T14:33:16;6.08;;;1.70;;
75866;SDS011;64513;56.258;43.980;2023-04-15T14:35:41;5.58;;;1.50;;
75866;SDS011;64513;56.258;43.980;2023-04-15T14:38:05;4.70;;;1.90;;
75866;SDS011;64513;56.258;43.980;2023-04-15T14:40:31;6.08;;;1.30;;
75866;SDS011;64513;56.258;43.980;2023-04-15T14:42:58;5.15;;;1.70;;
75866;SDS011;64513;56.258;43.980;2023-04-15T14:45:22;3.95;;;1.40;;
75866;SDS011;64513;56.258;43.980;2023-04-15T14:47:46;4.80;;;1.65;;
75866;SDS011;64513;56.258;43.980;2023-04-15T14:50:10;6.33;;;1.70;;
75866;SDS011;64513;56.258;43.980;2023-04-15T14:52:34;5.75;;;1.40;;
75866;SDS011;64513;56.258;43.980;2023-04-15T14:54:58;6.47;;;1.60;;
75866;SDS011;64513;56.258;43.980;2023-04-15T14:57:22;6.00;;;1.42;;
75866;SDS011;64513;56.258;43.980;2023-04-15T14:59:47;4.80;;;1.30;;
75866;SDS011;64513;56.258;43.980;2023-04-15T15:02:12;4.90;;;1.30;;
75866;SDS011;64513;56.258;43.980;2023-04-15T15:04:37;4.28;;;1.60;;
75866;SDS011;64513;56.258;43.980;2023-04-15T15:07:01;3.85;;;1.40;;
75866;SDS011;64513;56.258;43.980;2023-04-15T15:09:26;4.10;;;1.42;;
75866;SDS011;64513;56.258;43.980;2023-04-15T15:11:50;4.30;;;1.40;;